sensor_id;sensor_type;location;lat;lon;timestamp;P1;durP1;ratioP1;P2;durP2;ratioP2
249;SDS011;109;19.806;-70.704;2022-09-21T00:03:37;20.17;;;8.53;;
249;SDS011;109;19.806;-70.704;2022-09-21T00:06:06;25.80;;;10.50;;
249;SDS011;109;19.806;-70.704;2022-09-21T00:08:36;22.93;;;8.83;;
249;SDS011;109;19.806;-70.704;2022-09-21T00:11:03;32.40;;;11.20;;
249;SDS011;109;19.806;-70.704;2022-09-21T00:13:30;23.23;;;9.87;;
249;SDS011;109;19.806;-70.704;2022-09-21T00:15:58;36.83;;;13.63;;
249;SDS011;109;19.806;-70.704;2022-09-21T00:18:25;37.00;;;17.60;;
249;SDS011;109;19.806;-70.704;2022-09-21T00:20:52;55.73;;;32.17;;
249;SDS011;109;19.806;-70.704;2022-09-21T00:23:18;78.43;;;49.80;;
249;SDS011;109;19.806;-70.704;2022-09-21T00:25:45;114.00;;;62.00;;
249;SDS011;109;19.806;-70.704;2022-09-21T00:28:12;107.93;;;66.50;;
249;SDS011;109;19.806;-70.704;2022-09-21T00:30:38;97.30;;;64.30;;
249;SDS011;109;19.806;-70.704;2022-09-21T00:33:05;90.50;;;58.20;;
249;SDS011;109;19.806;-70.704;2022-09-21T00:35:31;72.23;;;48.43;;
249;SDS011;109;19.806;-70.704;2022-09-21T00:38:01;61.33;;;40.00;;
249;SDS011;109;19.806;-70.704;2022-09-21T00:40:28;59.70;;;38.83;;
249;SDS011;109;19.806;-70.704;2022-09-21T00:43:14;47.40;;;32.90;;
249;SDS011;109;19.806;-70.704;2022-09-21T00:45:42;47.70;;;30.07;;
249;SDS011;109;19.806;-70.704;2022-09-21T00:48:11;43.37;;;27.37;;
249;SDS011;109;19.806;-70.704;2022-09-21T00:50:39;32.30;;;22.30;;
249;SDS011;109;19.806;-70.704;2022-09-21T00:53:11;32.90;;;17.90;;
249;SDS011;109;19.806;-70.704;2022-09-21T00:55:40;26.20;;;17.87;;
249;SDS011;109;19.806;-70.704;2022-09-21T00:58:13;23.07;;;15.70;;
249;SDS011;109;19.806;-70.704;2022-09-21T01:00:43;22.80;;;15.10;;
249;SDS011;109;19.806;-70.704;2022-09-21T01:03:10;24.57;;;13.47;;
249;SDS011;109;19.806;-70.704;2022-09-21T01:05:37;20.53;;;10.83;;
249;SDS011;109;19.806;-70.704;2022-09-21T01:08:05;18.43;;;9.03;;
249;SDS011;109;19.806;-70.704;2022-09-21T01:10:45;12.87;;;7.83;;
249;SDS011;109;19.806;-70.704;2022-09-21T01:16:14;11.57;;;6.77;;
249;SDS011;109;19.806;-70.704;2022-09-21T01:18:51;15.20;;;6.30;;
249;SDS011;109;19.806;-70.704;2022-09-21T01:21:32;8.60;;;5.80;;
249;SDS011;109;19.806;-70.704;2022-09-21T01:29:32;13.70;;;5.90;;
249;SDS011;109;19.806;-70.704;2022-09-21T01:34:41;7.67;;;5.10;;
249;SDS011;109;19.806;-70.704;2022-09-21T01:37:16;9.10;;;5.00;;
249;SDS011;109;19.806;-70.704;2022-09-21T01:39:46;10.83;;;4.20;;
249;SDS011;109;19.806;-70.704;2022-09-21T01:42:17;9.97;;;4.33;;
249;SDS011;109;19.806;-70.704;2022-09-21T01:44:46;11.97;;;4.47;;
249;SDS011;109;19.806;-70.704;2022-09-21T01:47:14;11.77;;;3.93;;
249;SDS011;109;19.806;-70.704;2022-09-21T01:49:47;8.80;;;3.63;;
249;SDS011;109;19.806;-70.704;2022-09-21T01:54:52;10.70;;;4.23;;
249;SDS011;109;19.806;-70.704;2022-09-21T01:57:39;5.67;;;4.27;;
249;SDS011;109;19.806;-70.704;2022-09-21T02:00:20;5.77;;;4.07;;
249;SDS011;109;19.806;-70.704;2022-09-21T02:02:50;8.97;;;4.70;;
249;SDS011;109;19.806;-70.704;2022-09-21T02:05:33;8.60;;;4.33;;
249;SDS011;109;19.806;-70.704;2022-09-21T02:08:00;7.77;;;4.47;;
249;SDS011;109;19.806;-70.704;2022-09-21T02:10:35;8.23;;;5.00;;
249;SDS011;109;19.806;-70.704;2022-09-21T02:13:15;11.37;;;4.90;;
249;SDS011;109;19.806;-70.704;2022-09-21T02:21:48;9.20;;;4.90;;
249;SDS011;109;19.806;-70.704;2022-09-21T02:27:44;10.90;;;4.80;;
249;SDS011;109;19.806;-70.704;2022-09-21T02:30:28;7.00;;;4.80;;
249;SDS011;109;19.806;-70.704;2022-09-21T02:33:12;9.63;;;4.20;;
249;SDS011;109;19.806;-70.704;2022-09-21T02:36:09;9.17;;;4.60;;
249;SDS011;109;19.806;-70.704;2022-09-21T02:38:57;11.20;;;5.20;;
249;SDS011;109;19.806;-70.704;2022-09-21T02:42:12;14.83;;;4.77;;
249;SDS011;109;19.806;-70.704;2022-09-21T02:44:41;8.20;;;4.20;;
249;SDS011;109;19.806;-70.704;2022-09-21T02:50:23;10.13;;;5.40;;
249;SDS011;109;19.806;-70.704;2022-09-21T02:53:05;8.83;;;5.23;;
249;SDS011;109;19.806;-70.704;2022-09-21T02:55:49;9.40;;;5.70;;
249;SDS011;109;19.806;-70.704;2022-09-21T02:58:30;13.17;;;6.10;;
249;SDS011;109;19.806;-70.704;2022-09-21T03:00:59;14.30;;;6.17;;
249;SDS011;109;19.806;-70.704;2022-09-21T03:03:40;13.10;;;6.53;;
249;SDS011;109;19.806;-70.704;2022-09-21T03:06:06;15.20;;;6.80;;
249;SDS011;109;19.806;-70.704;2022-09-21T03:08:47;15.73;;;7.27;;
249;SDS011;109;19.806;-70.704;2022-09-21T03:11:17;20.47;;;7.40;;
249;SDS011;109;19.806;-70.704;2022-09-21T03:13:58;16.63;;;7.60;;
249;SDS011;109;19.806;-70.704;2022-09-21T03:16:32;18.97;;;10.87;;
249;SDS011;109;19.806;-70.704;2022-09-21T03:19:13;18.93;;;11.00;;
249;SDS011;109;19.806;-70.704;2022-09-21T03:21:40;23.83;;;11.63;;
249;SDS011;109;19.806;-70.704;2022-09-21T03:24:20;20.47;;;11.10;;
249;SDS011;109;19.806;-70.704;2022-09-21T03:27:18;21.63;;;10.87;;
249;SDS011;109;19.806;-70.704;2022-09-21T03:30:00;22.17;;;10.97;;
249;SDS011;109;19.806;-70.704;2022-09-21T03:32:26;16.33;;;9.60;;
249;SDS011;109;19.806;-70.704;2022-09-21T03:35:06;19.17;;;8.33;;
249;SDS011;109;19.806;-70.704;2022-09-21T03:37:32;13.53;;;6.57;;
249;SDS011;109;19.806;-70.704;2022-09-21T03:40:12;11.90;;;6.03;;
249;SDS011;109;19.806;-70.704;2022-09-21T03:42:39;14.50;;;5.77;;
249;SDS011;109;19.806;-70.704;2022-09-21T03:45:21;9.73;;;4.90;;
249;SDS011;109;19.806;-70.704;2022-09-21T03:47:47;9.63;;;5.30;;
249;SDS011;109;19.806;-70.704;2022-09-21T03:50:34;18.23;;;5.80;;
249;SDS011;109;19.806;-70.704;2022-09-21T03:53:07;14.53;;;5.87;;
249;SDS011;109;19.806;-70.704;2022-09-21T03:55:48;11.10;;;5.23;;
249;SDS011;109;19.806;-70.704;2022-09-21T03:58:28;13.77;;;5.50;;
249;SDS011;109;19.806;-70.704;2022-09-21T04:00:59;8.80;;;4.50;;
249;SDS011;109;19.806;-70.704;2022-09-21T04:03:40;11.90;;;5.00;;
249;SDS011;109;19.806;-70.704;2022-09-21T04:06:08;9.10;;;4.70;;
249;SDS011;109;19.806;-70.704;2022-09-21T04:08:48;17.37;;;5.10;;
249;SDS011;109;19.806;-70.704;2022-09-21T04:11:22;14.63;;;5.37;;
249;SDS011;109;19.806;-70.704;2022-09-21T04:14:04;21.70;;;6.20;;
249;SDS011;109;19.806;-70.704;2022-09-21T04:16:30;14.40;;;5.83;;
249;SDS011;109;19.806;-70.704;2022-09-21T04:19:11;12.23;;;5.80;;
249;SDS011;109;19.806;-70.704;2022-09-21T04:21:37;9.00;;;4.90;;
249;SDS011;109;19.806;-70.704;2022-09-21T04:24:17;12.70;;;5.53;;
249;SDS011;109;19.806;-70.704;2022-09-21T04:26:44;11.70;;;5.20;;
249;SDS011;109;19.806;-70.704;2022-09-21T04:29:24;21.13;;;5.70;;
249;SDS011;109;19.806;-70.704;2022-09-21T04:31:50;14.70;;;5.10;;
249;SDS011;109;19.806;-70.704;2022-09-21T04:34:31;13.63;;;5.00;;
249;SDS011;109;19.806;-70.704;2022-09-21T04:36:57;10.50;;;4.40;;
249;SDS011;109;19.806;-70.704;2022-09-21T04:39:39;13.67;;;4.83;;
249;SDS011;109;19.806;-70.704;2022-09-21T04:42:05;11.60;;;4.83;;
249;SDS011;109;19.806;-70.704;2022-09-21T04:44:45;15.17;;;4.60;;
249;SDS011;109;19.806;-70.704;2022-09-21T04:47:11;8.50;;;4.97;;
249;SDS011;109;19.806;-70.704;2022-09-21T04:50:01;19.33;;;5.80;;
249;SDS011;109;19.806;-70.704;2022-09-21T04:52:35;9.00;;;4.93;;
249;SDS011;109;19.806;-70.704;2022-09-21T04:55:15;17.20;;;4.87;;
249;SDS011;109;19.806;-70.704;2022-09-21T04:57:42;13.53;;;4.70;;
249;SDS011;109;19.806;-70.704;2022-09-21T05:00:22;16.40;;;6.00;;
249;SDS011;109;19.806;-70.704;2022-09-21T05:02:48;10.70;;;5.10;;
249;SDS011;109;19.806;-70.704;2022-09-21T05:05:36;10.43;;;5.10;;
249;SDS011;109;19.806;-70.704;2022-09-21T05:08:17;12.67;;;5.20;;
249;SDS011;109;19.806;-70.704;2022-09-21T05:11:11;23.20;;;6.20;;
249;SDS011;109;19.806;-70.704;2022-09-21T05:13:54;9.67;;;5.30;;
249;SDS011;109;19.806;-70.704;2022-09-21T05:16:20;8.33;;;4.90;;
249;SDS011;109;19.806;-70.704;2022-09-21T05:19:00;15.13;;;5.80;;
249;SDS011;109;19.806;-70.704;2022-09-21T05:21:26;14.50;;;5.43;;
249;SDS011;109;19.806;-70.704;2022-09-21T05:24:08;9.77;;;5.00;;
249;SDS011;109;19.806;-70.704;2022-09-21T05:26:34;10.93;;;5.20;;
249;SDS011;109;19.806;-70.704;2022-09-21T05:29:14;18.97;;;5.50;;
249;SDS011;109;19.806;-70.704;2022-09-21T05:31:47;12.70;;;5.07;;
249;SDS011;109;19.806;-70.704;2022-09-21T05:34:47;12.77;;;5.60;;
249;SDS011;109;19.806;-70.704;2022-09-21T05:37:40;14.37;;;5.10;;
249;SDS011;109;19.806;-70.704;2022-09-21T05:40:38;13.43;;;4.90;;
249;SDS011;109;19.806;-70.704;2022-09-21T05:43:21;15.80;;;4.47;;
249;SDS011;109;19.806;-70.704;2022-09-21T05:45:52;10.73;;;4.40;;
249;SDS011;109;19.806;-70.704;2022-09-21T05:49:02;12.73;;;4.60;;
249;SDS011;109;19.806;-70.704;2022-09-21T05:55:21;11.23;;;4.60;;
249;SDS011;109;19.806;-70.704;2022-09-21T06:01:35;10.07;;;4.00;;
249;SDS011;109;19.806;-70.704;2022-09-21T06:04:34;13.63;;;4.67;;
249;SDS011;109;19.806;-70.704;2022-09-21T06:07:00;10.33;;;4.50;;
249;SDS011;109;19.806;-70.704;2022-09-21T06:09:40;12.83;;;3.97;;
249;SDS011;109;19.806;-70.704;2022-09-21T06:12:07;12.30;;;4.17;;
249;SDS011;109;19.806;-70.704;2022-09-21T06:14:48;11.73;;;4.20;;
249;SDS011;109;19.806;-70.704;2022-09-21T06:17:14;18.07;;;5.57;;
249;SDS011;109;19.806;-70.704;2022-09-21T06:19:54;12.30;;;5.27;;
249;SDS011;109;19.806;-70.704;2022-09-21T06:22:20;14.70;;;4.80;;
249;SDS011;109;19.806;-70.704;2022-09-21T06:25:00;11.07;;;4.37;;
249;SDS011;109;19.806;-70.704;2022-09-21T06:27:26;8.20;;;4.40;;
249;SDS011;109;19.806;-70.704;2022-09-21T06:30:08;11.10;;;4.97;;
249;SDS011;109;19.806;-70.704;2022-09-21T06:32:34;8.83;;;4.10;;
249;SDS011;109;19.806;-70.704;2022-09-21T06:35:14;7.93;;;4.00;;
249;SDS011;109;19.806;-70.704;2022-09-21T06:37:40;25.33;;;4.43;;
249;SDS011;109;19.806;-70.704;2022-09-21T06:40:20;10.57;;;4.40;;
249;SDS011;109;19.806;-70.704;2022-09-21T06:43:15;13.30;;;4.00;;
249;SDS011;109;19.806;-70.704;2022-09-21T06:45:59;9.93;;;4.00;;
249;SDS011;109;19.806;-70.704;2022-09-21T06:48:46;7.13;;;3.60;;
249;SDS011;109;19.806;-70.704;2022-09-21T06:51:32;8.73;;;3.97;;
249;SDS011;109;19.806;-70.704;2022-09-21T06:54:13;10.03;;;3.60;;
249;SDS011;109;19.806;-70.704;2022-09-21T06:56:39;6.03;;;3.90;;
249;SDS011;109;19.806;-70.704;2022-09-21T06:59:19;9.50;;;3.73;;
249;SDS011;109;19.806;-70.704;2022-09-21T07:01:45;9.03;;;4.10;;
249;SDS011;109;19.806;-70.704;2022-09-21T07:04:29;11.07;;;3.77;;
249;SDS011;109;19.806;-70.704;2022-09-21T07:06:56;11.00;;;4.10;;
249;SDS011;109;19.806;-70.704;2022-09-21T07:09:37;12.87;;;4.90;;
249;SDS011;109;19.806;-70.704;2022-09-21T07:12:03;13.57;;;4.17;;
249;SDS011;109;19.806;-70.704;2022-09-21T07:14:44;9.27;;;4.03;;
249;SDS011;109;19.806;-70.704;2022-09-21T07:17:10;19.80;;;4.73;;
249;SDS011;109;19.806;-70.704;2022-09-21T07:19:51;26.57;;;5.77;;
249;SDS011;109;19.806;-70.704;2022-09-21T07:22:17;13.13;;;4.77;;
249;SDS011;109;19.806;-70.704;2022-09-21T07:24:58;8.63;;;4.27;;
249;SDS011;109;19.806;-70.704;2022-09-21T07:27:25;15.10;;;4.60;;
249;SDS011;109;19.806;-70.704;2022-09-21T07:30:06;13.50;;;4.63;;
249;SDS011;109;19.806;-70.704;2022-09-21T07:32:34;9.87;;;4.43;;
249;SDS011;109;19.806;-70.704;2022-09-21T07:35:14;15.27;;;4.90;;
249;SDS011;109;19.806;-70.704;2022-09-21T07:37:40;10.90;;;4.30;;
249;SDS011;109;19.806;-70.704;2022-09-21T07:40:20;9.97;;;4.40;;
249;SDS011;109;19.806;-70.704;2022-09-21T07:43:07;9.70;;;4.23;;
249;SDS011;109;19.806;-70.704;2022-09-21T07:45:40;8.40;;;3.93;;
249;SDS011;109;19.806;-70.704;2022-09-21T07:48:27;11.00;;;3.93;;
249;SDS011;109;19.806;-70.704;2022-09-21T07:51:08;10.87;;;4.13;;
249;SDS011;109;19.806;-70.704;2022-09-21T07:53:52;8.40;;;3.93;;
249;SDS011;109;19.806;-70.704;2022-09-21T07:56:30;3.90;;;3.30;;
249;SDS011;109;19.806;-70.704;2022-09-21T07:59:11;5.30;;;3.60;;
249;SDS011;109;19.806;-70.704;2022-09-21T08:01:38;11.20;;;4.10;;
249;SDS011;109;19.806;-70.704;2022-09-21T08:04:19;13.60;;;4.17;;
249;SDS011;109;19.806;-70.704;2022-09-21T08:06:45;11.63;;;4.50;;
249;SDS011;109;19.806;-70.704;2022-09-21T08:09:25;13.37;;;4.37;;
249;SDS011;109;19.806;-70.704;2022-09-21T08:11:51;6.53;;;4.30;;
249;SDS011;109;19.806;-70.704;2022-09-21T08:14:32;10.60;;;4.10;;
249;SDS011;109;19.806;-70.704;2022-09-21T08:16:59;10.83;;;4.83;;
249;SDS011;109;19.806;-70.704;2022-09-21T08:19:39;7.80;;;3.87;;
249;SDS011;109;19.806;-70.704;2022-09-21T08:22:05;11.27;;;4.33;;
249;SDS011;109;19.806;-70.704;2022-09-21T08:24:46;6.90;;;4.30;;
249;SDS011;109;19.806;-70.704;2022-09-21T08:27:12;10.00;;;3.90;;
249;SDS011;109;19.806;-70.704;2022-09-21T08:29:52;7.30;;;4.07;;
249;SDS011;109;19.806;-70.704;2022-09-21T08:32:18;10.23;;;4.43;;
249;SDS011;109;19.806;-70.704;2022-09-21T08:35:05;9.03;;;4.40;;
249;SDS011;109;19.806;-70.704;2022-09-21T08:37:39;7.00;;;4.40;;
249;SDS011;109;19.806;-70.704;2022-09-21T08:40:22;11.17;;;4.43;;
249;SDS011;109;19.806;-70.704;2022-09-21T08:43:06;13.57;;;4.20;;
249;SDS011;109;19.806;-70.704;2022-09-21T08:45:45;8.83;;;4.50;;
249;SDS011;109;19.806;-70.704;2022-09-21T08:48:33;8.50;;;4.40;;
249;SDS011;109;19.806;-70.704;2022-09-21T08:51:23;11.30;;;4.80;;
249;SDS011;109;19.806;-70.704;2022-09-21T08:54:08;11.60;;;4.97;;
249;SDS011;109;19.806;-70.704;2022-09-21T08:56:46;9.77;;;4.23;;
249;SDS011;109;19.806;-70.704;2022-09-21T08:59:26;10.33;;;4.37;;
249;SDS011;109;19.806;-70.704;2022-09-21T09:01:57;11.70;;;4.90;;
249;SDS011;109;19.806;-70.704;2022-09-21T09:05:03;10.53;;;4.63;;
249;SDS011;109;19.806;-70.704;2022-09-21T09:08:09;10.87;;;5.13;;
249;SDS011;109;19.806;-70.704;2022-09-21T09:17:06;8.93;;;4.20;;
249;SDS011;109;19.806;-70.704;2022-09-21T09:20:05;8.30;;;3.97;;
249;SDS011;109;19.806;-70.704;2022-09-21T09:22:40;5.57;;;3.90;;
249;SDS011;109;19.806;-70.704;2022-09-21T09:25:25;9.13;;;4.30;;
249;SDS011;109;19.806;-70.704;2022-09-21T09:31:29;7.87;;;4.10;;
249;SDS011;109;19.806;-70.704;2022-09-21T09:34:15;5.97;;;4.03;;
249;SDS011;109;19.806;-70.704;2022-09-21T09:36:56;8.67;;;4.00;;
249;SDS011;109;19.806;-70.704;2022-09-21T09:39:38;13.77;;;4.67;;
249;SDS011;109;19.806;-70.704;2022-09-21T09:51:08;14.20;;;4.70;;
249;SDS011;109;19.806;-70.704;2022-09-21T09:53:50;19.53;;;5.30;;
249;SDS011;109;19.806;-70.704;2022-09-21T09:56:16;13.90;;;5.30;;
249;SDS011;109;19.806;-70.704;2022-09-21T09:59:00;16.27;;;5.63;;
249;SDS011;109;19.806;-70.704;2022-09-21T10:01:43;17.10;;;5.83;;
249;SDS011;109;19.806;-70.704;2022-09-21T10:04:25;18.17;;;6.10;;
249;SDS011;109;19.806;-70.704;2022-09-21T10:06:52;12.30;;;5.67;;
249;SDS011;109;19.806;-70.704;2022-09-21T10:09:32;11.13;;;5.70;;
249;SDS011;109;19.806;-70.704;2022-09-21T10:12:14;10.40;;;5.63;;
249;SDS011;109;19.806;-70.704;2022-09-21T10:15:09;14.13;;;5.40;;
249;SDS011;109;19.806;-70.704;2022-09-21T10:17:46;6.20;;;5.37;;
249;SDS011;109;19.806;-70.704;2022-09-21T10:20:27;13.50;;;5.57;;
249;SDS011;109;19.806;-70.704;2022-09-21T10:23:08;10.43;;;6.00;;
249;SDS011;109;19.806;-70.704;2022-09-21T10:25:51;10.83;;;5.70;;
249;SDS011;109;19.806;-70.704;2022-09-21T10:28:59;14.70;;;5.67;;
249;SDS011;109;19.806;-70.704;2022-09-21T10:31:33;16.53;;;7.87;;
249;SDS011;109;19.806;-70.704;2022-09-21T10:34:13;25.77;;;19.27;;
249;SDS011;109;19.806;-70.704;2022-09-21T10:36:41;24.63;;;18.23;;
249;SDS011;109;19.806;-70.704;2022-09-21T10:39:30;16.77;;;10.40;;
249;SDS011;109;19.806;-70.704;2022-09-21T10:41:59;12.90;;;5.93;;
249;SDS011;109;19.806;-70.704;2022-09-21T10:44:46;10.70;;;5.30;;
249;SDS011;109;19.806;-70.704;2022-09-21T10:55:38;12.30;;;5.27;;
249;SDS011;109;19.806;-70.704;2022-09-21T10:58:22;10.77;;;5.10;;
249;SDS011;109;19.806;-70.704;2022-09-21T11:00:49;11.33;;;5.07;;
249;SDS011;109;19.806;-70.704;2022-09-21T11:06:03;7.50;;;5.00;;
249;SDS011;109;19.806;-70.704;2022-09-21T11:08:39;10.10;;;5.30;;
249;SDS011;109;19.806;-70.704;2022-09-21T11:11:29;9.37;;;6.63;;
249;SDS011;109;19.806;-70.704;2022-09-21T11:14:15;7.00;;;5.40;;
249;SDS011;109;19.806;-70.704;2022-09-21T11:27:41;11.77;;;5.80;;
249;SDS011;109;19.806;-70.704;2022-09-21T11:30:17;15.10;;;6.47;;
249;SDS011;109;19.806;-70.704;2022-09-21T11:32:51;8.70;;;6.80;;
249;SDS011;109;19.806;-70.704;2022-09-21T11:44:14;16.03;;;7.70;;
249;SDS011;109;19.806;-70.704;2022-09-21T11:46:59;20.07;;;8.83;;
249;SDS011;109;19.806;-70.704;2022-09-21T11:49:43;12.00;;;8.40;;
249;SDS011;109;19.806;-70.704;2022-09-21T11:52:38;22.13;;;13.60;;
249;SDS011;109;19.806;-70.704;2022-09-21T12:00:48;27.93;;;17.03;;
249;SDS011;109;19.806;-70.704;2022-09-21T12:03:43;20.87;;;15.90;;
249;SDS011;109;19.806;-70.704;2022-09-21T12:09:26;20.93;;;12.40;;
249;SDS011;109;19.806;-70.704;2022-09-21T12:20:11;20.83;;;10.80;;
249;SDS011;109;19.806;-70.704;2022-09-21T12:22:51;21.90;;;11.83;;
249;SDS011;109;19.806;-70.704;2022-09-21T12:25:26;20.10;;;13.17;;
249;SDS011;109;19.806;-70.704;2022-09-21T12:27:59;21.73;;;12.50;;
249;SDS011;109;19.806;-70.704;2022-09-21T12:30:30;24.93;;;13.00;;
249;SDS011;109;19.806;-70.704;2022-09-21T12:35:57;25.00;;;12.40;;
249;SDS011;109;19.806;-70.704;2022-09-21T12:38:57;16.53;;;11.70;;
249;SDS011;109;19.806;-70.704;2022-09-21T12:41:38;16.47;;;11.80;;
249;SDS011;109;19.806;-70.704;2022-09-21T12:44:38;16.07;;;11.53;;
249;SDS011;109;19.806;-70.704;2022-09-21T12:50:17;16.67;;;10.30;;
249;SDS011;109;19.806;-70.704;2022-09-21T12:52:50;17.63;;;9.17;;
249;SDS011;109;19.806;-70.704;2022-09-21T12:55:22;11.73;;;8.13;;
249;SDS011;109;19.806;-70.704;2022-09-21T13:00:30;13.47;;;7.37;;
249;SDS011;109;19.806;-70.704;2022-09-21T13:08:27;20.07;;;5.23;;
249;SDS011;109;19.806;-70.704;2022-09-21T13:11:01;18.30;;;5.57;;
249;SDS011;109;19.806;-70.704;2022-09-21T13:13:43;21.63;;;6.20;;
249;SDS011;109;19.806;-70.704;2022-09-21T13:16:28;16.53;;;5.57;;
249;SDS011;109;19.806;-70.704;2022-09-21T13:18:59;24.60;;;6.27;;
249;SDS011;109;19.806;-70.704;2022-09-21T13:21:27;36.80;;;7.13;;
249;SDS011;109;19.806;-70.704;2022-09-21T13:23:56;23.47;;;7.90;;
249;SDS011;109;19.806;-70.704;2022-09-21T13:26:32;26.30;;;6.30;;
249;SDS011;109;19.806;-70.704;2022-09-21T13:31:54;25.63;;;6.20;;
249;SDS011;109;19.806;-70.704;2022-09-21T13:44:55;45.23;;;9.23;;
249;SDS011;109;19.806;-70.704;2022-09-21T13:47:35;21.97;;;7.17;;
249;SDS011;109;19.806;-70.704;2022-09-21T13:52:50;34.37;;;7.77;;
249;SDS011;109;19.806;-70.704;2022-09-21T13:55:36;27.37;;;6.00;;
249;SDS011;109;19.806;-70.704;2022-09-21T14:03:45;19.13;;;6.70;;
249;SDS011;109;19.806;-70.704;2022-09-21T14:06:20;15.93;;;5.17;;
249;SDS011;109;19.806;-70.704;2022-09-21T14:09:03;15.40;;;6.00;;
249;SDS011;109;19.806;-70.704;2022-09-21T14:11:42;14.90;;;4.90;;
249;SDS011;109;19.806;-70.704;2022-09-21T14:27:05;19.70;;;6.00;;
249;SDS011;109;19.806;-70.704;2022-09-21T14:29:59;22.40;;;6.43;;
249;SDS011;109;19.806;-70.704;2022-09-21T14:32:36;17.83;;;6.90;;
249;SDS011;109;19.806;-70.704;2022-09-21T14:35:31;18.23;;;5.27;;
249;SDS011;109;19.806;-70.704;2022-09-21T14:38:06;14.13;;;5.23;;
249;SDS011;109;19.806;-70.704;2022-09-21T14:40:51;15.27;;;5.03;;
249;SDS011;109;19.806;-70.704;2022-09-21T14:43:31;13.90;;;5.17;;
249;SDS011;109;19.806;-70.704;2022-09-21T14:51:33;36.60;;;7.03;;
249;SDS011;109;19.806;-70.704;2022-09-21T14:56:42;29.17;;;8.10;;
249;SDS011;109;19.806;-70.704;2022-09-21T15:01:54;25.40;;;5.80;;
249;SDS011;109;19.806;-70.704;2022-09-21T15:13:43;22.97;;;6.00;;
249;SDS011;109;19.806;-70.704;2022-09-21T15:16:40;23.23;;;5.67;;
249;SDS011;109;19.806;-70.704;2022-09-21T15:21:51;41.30;;;7.47;;
249;SDS011;109;19.806;-70.704;2022-09-21T15:24:36;33.30;;;6.10;;
249;SDS011;109;19.806;-70.704;2022-09-21T15:27:14;13.90;;;4.80;;
249;SDS011;109;19.806;-70.704;2022-09-21T15:29:42;12.97;;;4.83;;
249;SDS011;109;19.806;-70.704;2022-09-21T15:32:32;17.47;;;6.00;;
249;SDS011;109;19.806;-70.704;2022-09-21T15:37:41;19.60;;;5.70;;
249;SDS011;109;19.806;-70.704;2022-09-21T15:40:21;19.23;;;5.67;;
249;SDS011;109;19.806;-70.704;2022-09-21T15:43:05;21.90;;;5.73;;
249;SDS011;109;19.806;-70.704;2022-09-21T15:45:50;14.13;;;5.27;;
249;SDS011;109;19.806;-70.704;2022-09-21T15:48:23;18.70;;;6.23;;
249;SDS011;109;19.806;-70.704;2022-09-21T15:50:55;12.17;;;4.80;;
249;SDS011;109;19.806;-70.704;2022-09-21T15:53:27;17.90;;;5.77;;
249;SDS011;109;19.806;-70.704;2022-09-21T15:55:58;19.00;;;5.57;;
249;SDS011;109;19.806;-70.704;2022-09-21T15:58:36;20.77;;;5.10;;
249;SDS011;109;19.806;-70.704;2022-09-21T16:01:13;19.00;;;6.37;;
249;SDS011;109;19.806;-70.704;2022-09-21T16:03:46;19.17;;;4.83;;
249;SDS011;109;19.806;-70.704;2022-09-21T16:08:50;21.40;;;6.07;;
249;SDS011;109;19.806;-70.704;2022-09-21T16:13:48;13.60;;;4.90;;
249;SDS011;109;19.806;-70.704;2022-09-21T16:22:20;15.23;;;4.80;;
249;SDS011;109;19.806;-70.704;2022-09-21T16:25:22;12.40;;;4.57;;
249;SDS011;109;19.806;-70.704;2022-09-21T16:27:53;10.77;;;5.80;;
249;SDS011;109;19.806;-70.704;2022-09-21T16:34:03;18.47;;;4.63;;
249;SDS011;109;19.806;-70.704;2022-09-21T16:38:47;9.80;;;5.00;;
249;SDS011;109;19.806;-70.704;2022-09-21T16:41:18;15.53;;;5.07;;
249;SDS011;109;19.806;-70.704;2022-09-21T16:43:46;10.40;;;4.03;;
249;SDS011;109;19.806;-70.704;2022-09-21T16:46:15;16.90;;;4.87;;
249;SDS011;109;19.806;-70.704;2022-09-21T16:48:43;8.77;;;4.53;;
249;SDS011;109;19.806;-70.704;2022-09-21T16:51:13;12.83;;;4.33;;
249;SDS011;109;19.806;-70.704;2022-09-21T16:53:46;13.70;;;4.47;;
249;SDS011;109;19.806;-70.704;2022-09-21T16:56:13;18.07;;;4.30;;
249;SDS011;109;19.806;-70.704;2022-09-21T16:58:41;20.77;;;5.70;;
249;SDS011;109;19.806;-70.704;2022-09-21T17:01:08;29.50;;;5.93;;
249;SDS011;109;19.806;-70.704;2022-09-21T17:03:38;15.70;;;4.70;;
249;SDS011;109;19.806;-70.704;2022-09-21T17:06:14;15.30;;;4.83;;
249;SDS011;109;19.806;-70.704;2022-09-21T17:08:42;18.07;;;5.40;;
249;SDS011;109;19.806;-70.704;2022-09-21T17:11:16;24.57;;;5.33;;
249;SDS011;109;19.806;-70.704;2022-09-21T17:13:47;25.83;;;6.00;;
249;SDS011;109;19.806;-70.704;2022-09-21T17:16:16;43.97;;;6.70;;
249;SDS011;109;19.806;-70.704;2022-09-21T17:18:45;20.50;;;5.00;;
249;SDS011;109;19.806;-70.704;2022-09-21T17:21:14;21.13;;;5.37;;
249;SDS011;109;19.806;-70.704;2022-09-21T17:23:41;14.23;;;5.47;;
249;SDS011;109;19.806;-70.704;2022-09-21T17:26:15;15.20;;;4.50;;
249;SDS011;109;19.806;-70.704;2022-09-21T17:28:45;14.30;;;4.77;;
249;SDS011;109;19.806;-70.704;2022-09-21T17:31:13;14.00;;;5.00;;
249;SDS011;109;19.806;-70.704;2022-09-21T17:33:41;20.83;;;5.10;;
249;SDS011;109;19.806;-70.704;2022-09-21T17:36:17;16.90;;;5.40;;
249;SDS011;109;19.806;-70.704;2022-09-21T17:38:43;22.80;;;5.50;;
249;SDS011;109;19.806;-70.704;2022-09-21T17:41:14;20.43;;;5.60;;
249;SDS011;109;19.806;-70.704;2022-09-21T17:43:44;19.37;;;5.07;;
249;SDS011;109;19.806;-70.704;2022-09-21T17:46:27;29.40;;;5.27;;
249;SDS011;109;19.806;-70.704;2022-09-21T17:49:14;15.30;;;6.40;;
249;SDS011;109;19.806;-70.704;2022-09-21T17:51:40;24.43;;;5.23;;
249;SDS011;109;19.806;-70.704;2022-09-21T17:54:25;16.20;;;5.10;;
249;SDS011;109;19.806;-70.704;2022-09-21T18:00:13;19.23;;;5.57;;
249;SDS011;109;19.806;-70.704;2022-09-21T18:02:45;27.60;;;5.87;;
249;SDS011;109;19.806;-70.704;2022-09-21T18:07:48;16.20;;;5.00;;
249;SDS011;109;19.806;-70.704;2022-09-21T18:10:16;19.10;;;4.77;;
249;SDS011;109;19.806;-70.704;2022-09-21T18:16:38;27.90;;;6.97;;
249;SDS011;109;19.806;-70.704;2022-09-21T18:21:38;11.40;;;4.27;;
249;SDS011;109;19.806;-70.704;2022-09-21T18:24:21;19.57;;;5.47;;
249;SDS011;109;19.806;-70.704;2022-09-21T18:26:58;34.27;;;4.70;;
249;SDS011;109;19.806;-70.704;2022-09-21T18:29:26;21.30;;;4.97;;
249;SDS011;109;19.806;-70.704;2022-09-21T18:35:50;16.27;;;4.47;;
249;SDS011;109;19.806;-70.704;2022-09-21T18:38:14;9.23;;;3.80;;
249;SDS011;109;19.806;-70.704;2022-09-21T18:52:16;17.47;;;4.93;;
249;SDS011;109;19.806;-70.704;2022-09-21T18:55:10;23.97;;;4.80;;
249;SDS011;109;19.806;-70.704;2022-09-21T18:57:48;60.03;;;7.20;;
249;SDS011;109;19.806;-70.704;2022-09-21T19:00:16;14.47;;;4.87;;
249;SDS011;109;19.806;-70.704;2022-09-21T19:02:43;29.03;;;6.00;;
249;SDS011;109;19.806;-70.704;2022-09-21T19:05:11;26.53;;;5.93;;
249;SDS011;109;19.806;-70.704;2022-09-21T19:07:43;31.27;;;6.87;;
249;SDS011;109;19.806;-70.704;2022-09-21T19:15:57;22.97;;;6.47;;
249;SDS011;109;19.806;-70.704;2022-09-21T19:21:41;29.87;;;6.47;;
249;SDS011;109;19.806;-70.704;2022-09-21T19:24:38;12.63;;;4.77;;
249;SDS011;109;19.806;-70.704;2022-09-21T19:29:58;10.93;;;4.40;;
249;SDS011;109;19.806;-70.704;2022-09-21T19:32:33;20.37;;;6.53;;
249;SDS011;109;19.806;-70.704;2022-09-21T19:35:31;13.90;;;4.77;;
249;SDS011;109;19.806;-70.704;2022-09-21T19:37:58;24.43;;;6.10;;
249;SDS011;109;19.806;-70.704;2022-09-21T19:40:27;19.73;;;5.10;;
249;SDS011;109;19.806;-70.704;2022-09-21T19:43:10;24.07;;;6.30;;
249;SDS011;109;19.806;-70.704;2022-09-21T19:45:54;26.33;;;6.30;;
249;SDS011;109;19.806;-70.704;2022-09-21T19:48:34;12.13;;;4.77;;
249;SDS011;109;19.806;-70.704;2022-09-21T19:53:56;14.43;;;4.70;;